sensor_id;sensor_type;location;lat;lon;timestamp;P1;durP1;ratioP1;P2;durP2;ratioP2
78430;SDS011;67727;50.236;22.452;2023-11-19T00:00:07;26.30;;;11.60;;
78430;SDS011;67727;50.236;22.452;2023-11-19T00:02:58;24.50;;;10.90;;
78430;SDS011;67727;50.236;22.452;2023-11-19T00:05:25;19.90;;;10.70;;
78430;SDS011;67727;50.236;22.452;2023-11-19T00:07:54;35.80;;;13.40;;
78430;SDS011;67727;50.236;22.452;2023-11-19T00:10:21;33.90;;;14.70;;
78430;SDS011;67727;50.236;22.452;2023-11-19T00:12:48;39.00;;;15.20;;
78430;SDS011;67727;50.236;22.452;2023-11-19T00:15:16;58.30;;;17.20;;
78430;SDS011;67727;50.236;22.452;2023-11-19T00:17:45;33.00;;;13.80;;
78430;SDS011;67727;50.236;22.452;2023-11-19T00:20:13;29.70;;;12.50;;
78430;SDS011;67727;50.236;22.452;2023-11-19T00:22:41;27.20;;;11.50;;
78430;SDS011;67727;50.236;22.452;2023-11-19T00:25:09;35.20;;;14.80;;
78430;SDS011;67727;50.236;22.452;2023-11-19T00:27:36;50.70;;;18.30;;
78430;SDS011;67727;50.236;22.452;2023-11-19T00:30:06;80.20;;;28.40;;
78430;SDS011;67727;50.236;22.452;2023-11-19T00:32:36;94.50;;;35.50;;
78430;SDS011;67727;50.236;22.452;2023-11-19T00:35:05;65.10;;;23.30;;
78430;SDS011;67727;50.236;22.452;2023-11-19T00:37:33;51.70;;;20.50;;
78430;SDS011;67727;50.236;22.452;2023-11-19T00:40:00;65.40;;;23.30;;
78430;SDS011;67727;50.236;22.452;2023-11-19T00:42:27;58.00;;;22.20;;
78430;SDS011;67727;50.236;22.452;2023-11-19T00:44:54;82.30;;;24.20;;
78430;SDS011;67727;50.236;22.452;2023-11-19T00:47:21;39.30;;;14.70;;
78430;SDS011;67727;50.236;22.452;2023-11-19T00:49:48;37.30;;;14.50;;
78430;SDS011;67727;50.236;22.452;2023-11-19T00:52:18;42.20;;;15.20;;
78430;SDS011;67727;50.236;22.452;2023-11-19T00:54:45;26.60;;;12.20;;
78430;SDS011;67727;50.236;22.452;2023-11-19T00:57:12;27.60;;;12.60;;
78430;SDS011;67727;50.236;22.452;2023-11-19T00:59:41;27.60;;;12.10;;
78430;SDS011;67727;50.236;22.452;2023-11-19T01:02:09;23.60;;;11.30;;
78430;SDS011;67727;50.236;22.452;2023-11-19T01:04:36;26.40;;;13.40;;
78430;SDS011;67727;50.236;22.452;2023-11-19T01:07:03;26.90;;;12.40;;
78430;SDS011;67727;50.236;22.452;2023-11-19T01:09:31;22.90;;;11.40;;
78430;SDS011;67727;50.236;22.452;2023-11-19T01:12:02;39.40;;;16.30;;
78430;SDS011;67727;50.236;22.452;2023-11-19T01:14:29;52.70;;;21.00;;
78430;SDS011;67727;50.236;22.452;2023-11-19T01:16:56;30.50;;;13.60;;
78430;SDS011;67727;50.236;22.452;2023-11-19T01:19:24;34.70;;;13.60;;
78430;SDS011;67727;50.236;22.452;2023-11-19T01:21:50;44.20;;;16.00;;
78430;SDS011;67727;50.236;22.452;2023-11-19T01:24:18;33.80;;;14.10;;
78430;SDS011;67727;50.236;22.452;2023-11-19T01:26:45;28.90;;;12.80;;
78430;SDS011;67727;50.236;22.452;2023-11-19T01:29:12;34.30;;;15.40;;
78430;SDS011;67727;50.236;22.452;2023-11-19T01:31:43;30.10;;;14.60;;
78430;SDS011;67727;50.236;22.452;2023-11-19T01:34:12;34.90;;;15.00;;
78430;SDS011;67727;50.236;22.452;2023-11-19T01:36:39;41.60;;;16.80;;
78430;SDS011;67727;50.236;22.452;2023-11-19T01:39:06;34.00;;;14.50;;
78430;SDS011;67727;50.236;22.452;2023-11-19T01:41:36;33.70;;;15.10;;
78430;SDS011;67727;50.236;22.452;2023-11-19T01:44:03;60.50;;;20.10;;
78430;SDS011;67727;50.236;22.452;2023-11-19T01:46:32;43.20;;;16.40;;
78430;SDS011;67727;50.236;22.452;2023-11-19T01:48:59;34.40;;;13.50;;
78430;SDS011;67727;50.236;22.452;2023-11-19T01:51:27;33.90;;;13.70;;
78430;SDS011;67727;50.236;22.452;2023-11-19T01:53:54;43.80;;;16.80;;
78430;SDS011;67727;50.236;22.452;2023-11-19T01:56:23;39.70;;;16.90;;
78430;SDS011;67727;50.236;22.452;2023-11-19T01:58:52;42.60;;;17.70;;
78430;SDS011;67727;50.236;22.452;2023-11-19T02:01:21;30.70;;;15.60;;
78430;SDS011;67727;50.236;22.452;2023-11-19T02:03:48;27.90;;;14.30;;
78430;SDS011;67727;50.236;22.452;2023-11-19T02:06:15;28.90;;;13.30;;
78430;SDS011;67727;50.236;22.452;2023-11-19T02:08:42;29.50;;;14.30;;
78430;SDS011;67727;50.236;22.452;2023-11-19T02:11:10;31.00;;;12.70;;
78430;SDS011;67727;50.236;22.452;2023-11-19T02:13:38;30.20;;;13.00;;
78430;SDS011;67727;50.236;22.452;2023-11-19T02:16:06;28.90;;;13.30;;
78430;SDS011;67727;50.236;22.452;2023-11-19T02:18:34;29.40;;;12.30;;
78430;SDS011;67727;50.236;22.452;2023-11-19T02:21:01;33.60;;;13.90;;
78430;SDS011;67727;50.236;22.452;2023-11-19T02:23:28;31.40;;;15.20;;
78430;SDS011;67727;50.236;22.452;2023-11-19T02:28:55;28.20;;;14.10;;
78430;SDS011;67727;50.236;22.452;2023-11-19T02:31:22;50.40;;;20.70;;
78430;SDS011;67727;50.236;22.452;2023-11-19T02:33:49;60.60;;;25.70;;
78430;SDS011;67727;50.236;22.452;2023-11-19T02:36:16;77.70;;;29.10;;
78430;SDS011;67727;50.236;22.452;2023-11-19T02:38:43;56.60;;;20.80;;
78430;SDS011;67727;50.236;22.452;2023-11-19T02:41:10;35.50;;;14.90;;
78430;SDS011;67727;50.236;22.452;2023-11-19T02:43:37;36.60;;;14.40;;
78430;SDS011;67727;50.236;22.452;2023-11-19T02:46:05;34.20;;;14.30;;
78430;SDS011;67727;50.236;22.452;2023-11-19T02:48:35;41.70;;;17.00;;
78430;SDS011;67727;50.236;22.452;2023-11-19T02:51:02;39.50;;;17.60;;
78430;SDS011;67727;50.236;22.452;2023-11-19T02:53:30;59.30;;;24.20;;
78430;SDS011;67727;50.236;22.452;2023-11-19T02:55:58;40.10;;;17.80;;
78430;SDS011;67727;50.236;22.452;2023-11-19T02:58:38;39.90;;;18.60;;
78430;SDS011;67727;50.236;22.452;2023-11-19T03:01:05;59.60;;;23.20;;
78430;SDS011;67727;50.236;22.452;2023-11-19T03:03:50;47.60;;;20.30;;
78430;SDS011;67727;50.236;22.452;2023-11-19T03:06:23;59.90;;;22.40;;
78430;SDS011;67727;50.236;22.452;2023-11-19T03:08:50;52.60;;;20.10;;
78430;SDS011;67727;50.236;22.452;2023-11-19T03:11:17;50.60;;;18.10;;
78430;SDS011;67727;50.236;22.452;2023-11-19T03:13:44;35.30;;;14.50;;
78430;SDS011;67727;50.236;22.452;2023-11-19T03:16:11;33.40;;;13.60;;
78430;SDS011;67727;50.236;22.452;2023-11-19T03:18:39;29.40;;;13.40;;
78430;SDS011;67727;50.236;22.452;2023-11-19T03:21:06;36.00;;;18.20;;
78430;SDS011;67727;50.236;22.452;2023-11-19T03:23:34;29.80;;;16.00;;
78430;SDS011;67727;50.236;22.452;2023-11-19T03:26:02;29.10;;;13.50;;
78430;SDS011;67727;50.236;22.452;2023-11-19T03:28:32;30.20;;;15.20;;
78430;SDS011;67727;50.236;22.452;2023-11-19T03:30:59;39.80;;;17.30;;
78430;SDS011;67727;50.236;22.452;2023-11-19T03:33:25;35.20;;;15.90;;
78430;SDS011;67727;50.236;22.452;2023-11-19T03:35:54;33.40;;;15.90;;
78430;SDS011;67727;50.236;22.452;2023-11-19T03:38:23;33.70;;;14.50;;
78430;SDS011;67727;50.236;22.452;2023-11-19T03:40:51;33.00;;;13.30;;
78430;SDS011;67727;50.236;22.452;2023-11-19T03:43:18;42.50;;;16.50;;
78430;SDS011;67727;50.236;22.452;2023-11-19T03:45:48;42.30;;;18.60;;
78430;SDS011;67727;50.236;22.452;2023-11-19T03:48:14;43.00;;;18.30;;
78430;SDS011;67727;50.236;22.452;2023-11-19T03:50:42;45.70;;;19.40;;
78430;SDS011;67727;50.236;22.452;2023-11-19T03:53:09;42.10;;;19.00;;
78430;SDS011;67727;50.236;22.452;2023-11-19T03:55:37;39.90;;;17.70;;
78430;SDS011;67727;50.236;22.452;2023-11-19T03:58:04;40.10;;;17.80;;
78430;SDS011;67727;50.236;22.452;2023-11-19T04:00:31;35.80;;;17.30;;
78430;SDS011;67727;50.236;22.452;2023-11-19T04:02:59;57.30;;;24.30;;
78430;SDS011;67727;50.236;22.452;2023-11-19T04:05:27;45.90;;;21.30;;
78430;SDS011;67727;50.236;22.452;2023-11-19T04:07:54;50.50;;;21.80;;
78430;SDS011;67727;50.236;22.452;2023-11-19T04:10:21;46.10;;;20.90;;
78430;SDS011;67727;50.236;22.452;2023-11-19T04:15:17;45.70;;;17.40;;
78430;SDS011;67727;50.236;22.452;2023-11-19T04:17:44;37.50;;;18.10;;
78430;SDS011;67727;50.236;22.452;2023-11-19T04:20:11;34.80;;;18.10;;
78430;SDS011;67727;50.236;22.452;2023-11-19T04:22:40;41.90;;;18.60;;
78430;SDS011;67727;50.236;22.452;2023-11-19T04:25:07;47.90;;;22.40;;
78430;SDS011;67727;50.236;22.452;2023-11-19T04:27:34;44.60;;;21.90;;
78430;SDS011;67727;50.236;22.452;2023-11-19T04:30:01;52.70;;;21.50;;
78430;SDS011;67727;50.236;22.452;2023-11-19T04:32:30;60.30;;;25.20;;
78430;SDS011;67727;50.236;22.452;2023-11-19T04:34:56;50.30;;;22.20;;
78430;SDS011;67727;50.236;22.452;2023-11-19T04:37:23;49.40;;;21.40;;
78430;SDS011;67727;50.236;22.452;2023-11-19T04:39:51;66.50;;;24.40;;
78430;SDS011;67727;50.236;22.452;2023-11-19T04:42:17;43.70;;;17.00;;
78430;SDS011;67727;50.236;22.452;2023-11-19T04:44:44;39.10;;;17.00;;
78430;SDS011;67727;50.236;22.452;2023-11-19T04:47:11;29.70;;;14.40;;
78430;SDS011;67727;50.236;22.452;2023-11-19T04:49:41;27.00;;;13.40;;
78430;SDS011;67727;50.236;22.452;2023-11-19T04:52:11;22.90;;;12.90;;
78430;SDS011;67727;50.236;22.452;2023-11-19T04:54:41;29.40;;;14.70;;
78430;SDS011;67727;50.236;22.452;2023-11-19T04:57:09;27.40;;;14.00;;
78430;SDS011;67727;50.236;22.452;2023-11-19T04:59:39;25.70;;;12.80;;
78430;SDS011;67727;50.236;22.452;2023-11-19T05:02:08;26.40;;;12.70;;
78430;SDS011;67727;50.236;22.452;2023-11-19T05:04:35;24.10;;;11.80;;
78430;SDS011;67727;50.236;22.452;2023-11-19T05:07:02;27.40;;;13.00;;
78430;SDS011;67727;50.236;22.452;2023-11-19T05:09:29;25.50;;;12.10;;
78430;SDS011;67727;50.236;22.452;2023-11-19T05:11:57;23.50;;;11.60;;
78430;SDS011;67727;50.236;22.452;2023-11-19T05:14:23;26.10;;;13.20;;
78430;SDS011;67727;50.236;22.452;2023-11-19T05:16:50;21.50;;;11.50;;
78430;SDS011;67727;50.236;22.452;2023-11-19T05:19:17;25.50;;;13.10;;
78430;SDS011;67727;50.236;22.452;2023-11-19T05:21:44;22.30;;;11.70;;
78430;SDS011;67727;50.236;22.452;2023-11-19T05:24:11;21.80;;;11.90;;
78430;SDS011;67727;50.236;22.452;2023-11-19T05:26:38;22.20;;;12.20;;
78430;SDS011;67727;50.236;22.452;2023-11-19T05:29:05;25.50;;;12.50;;
78430;SDS011;67727;50.236;22.452;2023-11-19T05:31:32;27.10;;;13.60;;
78430;SDS011;67727;50.236;22.452;2023-11-19T05:33:59;25.80;;;12.50;;
78430;SDS011;67727;50.236;22.452;2023-11-19T05:36:25;27.70;;;14.00;;
78430;SDS011;67727;50.236;22.452;2023-11-19T05:38:54;29.60;;;17.40;;
78430;SDS011;67727;50.236;22.452;2023-11-19T05:41:21;33.40;;;15.10;;
78430;SDS011;67727;50.236;22.452;2023-11-19T05:43:48;29.10;;;15.90;;
78430;SDS011;67727;50.236;22.452;2023-11-19T05:46:14;28.40;;;15.90;;
78430;SDS011;67727;50.236;22.452;2023-11-19T05:48:41;28.90;;;15.30;;
78430;SDS011;67727;50.236;22.452;2023-11-19T05:51:08;24.30;;;13.60;;
78430;SDS011;67727;50.236;22.452;2023-11-19T05:53:35;24.70;;;13.60;;
78430;SDS011;67727;50.236;22.452;2023-11-19T05:56:01;27.30;;;14.10;;
78430;SDS011;67727;50.236;22.452;2023-11-19T05:58:30;24.20;;;13.70;;
78430;SDS011;67727;50.236;22.452;2023-11-19T06:00:58;27.40;;;13.50;;
78430;SDS011;67727;50.236;22.452;2023-11-19T06:03:27;28.00;;;13.20;;
78430;SDS011;67727;50.236;22.452;2023-11-19T06:05:54;29.50;;;13.50;;
78430;SDS011;67727;50.236;22.452;2023-11-19T06:08:21;28.90;;;13.80;;
78430;SDS011;67727;50.236;22.452;2023-11-19T06:10:48;26.70;;;13.10;;
78430;SDS011;67727;50.236;22.452;2023-11-19T06:13:17;24.00;;;12.90;;
78430;SDS011;67727;50.236;22.452;2023-11-19T06:15:44;26.50;;;14.40;;
78430;SDS011;67727;50.236;22.452;2023-11-19T06:18:11;27.40;;;13.50;;
78430;SDS011;67727;50.236;22.452;2023-11-19T06:20:38;31.10;;;14.60;;
78430;SDS011;67727;50.236;22.452;2023-11-19T06:23:05;28.90;;;15.00;;
78430;SDS011;67727;50.236;22.452;2023-11-19T06:25:33;28.80;;;16.90;;
78430;SDS011;67727;50.236;22.452;2023-11-19T06:28:02;31.80;;;14.20;;
78430;SDS011;67727;50.236;22.452;2023-11-19T06:30:29;35.80;;;15.80;;
78430;SDS011;67727;50.236;22.452;2023-11-19T06:32:57;37.10;;;17.40;;
78430;SDS011;67727;50.236;22.452;2023-11-19T06:35:24;31.20;;;14.50;;
78430;SDS011;67727;50.236;22.452;2023-11-19T06:37:51;32.60;;;15.00;;
78430;SDS011;67727;50.236;22.452;2023-11-19T06:40:18;33.90;;;16.40;;
78430;SDS011;67727;50.236;22.452;2023-11-19T06:42:45;37.60;;;16.00;;
78430;SDS011;67727;50.236;22.452;2023-11-19T06:45:11;29.40;;;15.00;;
78430;SDS011;67727;50.236;22.452;2023-11-19T06:47:39;27.70;;;14.00;;
78430;SDS011;67727;50.236;22.452;2023-11-19T06:50:06;27.60;;;14.90;;
78430;SDS011;67727;50.236;22.452;2023-11-19T06:52:33;24.70;;;14.00;;
78430;SDS011;67727;50.236;22.452;2023-11-19T06:55:00;25.80;;;12.70;;
78430;SDS011;67727;50.236;22.452;2023-11-19T06:57:27;24.30;;;13.50;;
78430;SDS011;67727;50.236;22.452;2023-11-19T06:59:55;23.60;;;12.90;;
78430;SDS011;67727;50.236;22.452;2023-11-19T07:02:23;27.10;;;14.70;;
78430;SDS011;67727;50.236;22.452;2023-11-19T07:04:51;33.60;;;15.40;;
78430;SDS011;67727;50.236;22.452;2023-11-19T07:07:18;30.00;;;16.00;;
78430;SDS011;67727;50.236;22.452;2023-11-19T07:09:44;28.10;;;14.30;;
78430;SDS011;67727;50.236;22.452;2023-11-19T07:12:11;31.60;;;15.40;;
78430;SDS011;67727;50.236;22.452;2023-11-19T07:14:40;36.20;;;18.10;;
78430;SDS011;67727;50.236;22.452;2023-11-19T07:17:08;32.70;;;18.10;;
78430;SDS011;67727;50.236;22.452;2023-11-19T07:19:38;25.40;;;14.60;;
78430;SDS011;67727;50.236;22.452;2023-11-19T07:22:05;26.80;;;12.30;;
78430;SDS011;67727;50.236;22.452;2023-11-19T07:24:33;27.90;;;13.70;;
78430;SDS011;67727;50.236;22.452;2023-11-19T07:27:00;31.10;;;17.10;;
78430;SDS011;67727;50.236;22.452;2023-11-19T07:29:27;30.70;;;17.10;;
78430;SDS011;67727;50.236;22.452;2023-11-19T07:31:53;29.40;;;14.10;;
78430;SDS011;67727;50.236;22.452;2023-11-19T07:34:20;29.30;;;15.10;;
78430;SDS011;67727;50.236;22.452;2023-11-19T07:36:47;32.90;;;15.10;;
78430;SDS011;67727;50.236;22.452;2023-11-19T07:39:14;29.80;;;15.70;;
78430;SDS011;67727;50.236;22.452;2023-11-19T07:41:41;27.80;;;15.10;;
78430;SDS011;67727;50.236;22.452;2023-11-19T07:44:08;28.10;;;14.00;;
78430;SDS011;67727;50.236;22.452;2023-11-19T07:46:35;29.40;;;14.80;;
78430;SDS011;67727;50.236;22.452;2023-11-19T07:49:02;31.60;;;15.60;;
78430;SDS011;67727;50.236;22.452;2023-11-19T07:51:29;32.90;;;17.10;;
78430;SDS011;67727;50.236;22.452;2023-11-19T07:53:56;28.50;;;16.00;;
78430;SDS011;67727;50.236;22.452;2023-11-19T07:56:23;30.70;;;15.90;;
78430;SDS011;67727;50.236;22.452;2023-11-19T07:58:49;31.60;;;14.90;;
78430;SDS011;67727;50.236;22.452;2023-11-19T08:01:16;29.90;;;14.60;;
78430;SDS011;67727;50.236;22.452;2023-11-19T08:03:43;30.30;;;13.80;;
78430;SDS011;67727;50.236;22.452;2023-11-19T08:06:10;30.30;;;15.30;;
78430;SDS011;67727;50.236;22.452;2023-11-19T08:08:38;32.10;;;15.70;;
78430;SDS011;67727;50.236;22.452;2023-11-19T08:11:05;29.50;;;13.00;;
78430;SDS011;67727;50.236;22.452;2023-11-19T08:13:32;30.80;;;15.00;;
78430;SDS011;67727;50.236;22.452;2023-11-19T08:15:59;33.20;;;15.10;;
78430;SDS011;67727;50.236;22.452;2023-11-19T08:18:26;33.60;;;14.50;;
78430;SDS011;67727;50.236;22.452;2023-11-19T08:20:53;25.10;;;14.00;;
78430;SDS011;67727;50.236;22.452;2023-11-19T08:23:20;25.80;;;13.30;;
78430;SDS011;67727;50.236;22.452;2023-11-19T08:25:47;23.90;;;12.90;;
78430;SDS011;67727;50.236;22.452;2023-11-19T08:28:14;27.50;;;14.20;;
78430;SDS011;67727;50.236;22.452;2023-11-19T08:30:40;30.80;;;16.60;;
78430;SDS011;67727;50.236;22.452;2023-11-19T08:33:07;23.60;;;13.80;;
78430;SDS011;67727;50.236;22.452;2023-11-19T08:35:34;34.90;;;16.50;;
78430;SDS011;67727;50.236;22.452;2023-11-19T08:38:01;39.60;;;16.20;;
78430;SDS011;67727;50.236;22.452;2023-11-19T08:40:28;34.50;;;15.10;;
78430;SDS011;67727;50.236;22.452;2023-11-19T08:42:56;35.30;;;16.70;;
78430;SDS011;67727;50.236;22.452;2023-11-19T08:45:23;30.80;;;15.20;;
78430;SDS011;67727;50.236;22.452;2023-11-19T08:47:50;27.30;;;12.60;;
78430;SDS011;67727;50.236;22.452;2023-11-19T08:50:16;29.60;;;14.40;;
78430;SDS011;67727;50.236;22.452;2023-11-19T08:52:43;38.80;;;16.90;;
78430;SDS011;67727;50.236;22.452;2023-11-19T08:55:10;45.00;;;21.10;;
78430;SDS011;67727;50.236;22.452;2023-11-19T08:57:39;36.70;;;18.30;;
78430;SDS011;67727;50.236;22.452;2023-11-19T09:00:06;44.80;;;19.50;;
78430;SDS011;67727;50.236;22.452;2023-11-19T09:02:37;39.60;;;19.00;;
78430;SDS011;67727;50.236;22.452;2023-11-19T09:05:04;34.40;;;16.60;;
78430;SDS011;67727;50.236;22.452;2023-11-19T09:07:33;42.40;;;19.10;;
78430;SDS011;67727;50.236;22.452;2023-11-19T09:10:00;34.10;;;15.90;;
78430;SDS011;67727;50.236;22.452;2023-11-19T09:12:27;36.10;;;13.20;;
78430;SDS011;67727;50.236;22.452;2023-11-19T09:14:54;31.20;;;14.70;;
78430;SDS011;67727;50.236;22.452;2023-11-19T09:17:21;27.80;;;12.30;;
78430;SDS011;67727;50.236;22.452;2023-11-19T09:19:48;31.60;;;14.70;;
78430;SDS011;67727;50.236;22.452;2023-11-19T09:22:14;32.00;;;15.90;;
78430;SDS011;67727;50.236;22.452;2023-11-19T09:24:41;31.80;;;17.10;;
78430;SDS011;67727;50.236;22.452;2023-11-19T09:27:10;32.10;;;14.10;;
78430;SDS011;67727;50.236;22.452;2023-11-19T09:29:37;44.90;;;19.50;;
78430;SDS011;67727;50.236;22.452;2023-11-19T09:32:05;33.30;;;18.10;;
78430;SDS011;67727;50.236;22.452;2023-11-19T09:34:33;38.10;;;17.70;;
78430;SDS011;67727;50.236;22.452;2023-11-19T09:36:59;36.30;;;17.20;;
78430;SDS011;67727;50.236;22.452;2023-11-19T09:39:27;28.80;;;15.50;;
78430;SDS011;67727;50.236;22.452;2023-11-19T09:41:54;41.20;;;20.80;;
78430;SDS011;67727;50.236;22.452;2023-11-19T09:44:21;33.10;;;14.60;;
78430;SDS011;67727;50.236;22.452;2023-11-19T09:46:48;32.70;;;14.30;;
78430;SDS011;67727;50.236;22.452;2023-11-19T09:49:15;38.60;;;16.00;;
78430;SDS011;67727;50.236;22.452;2023-11-19T09:51:47;35.20;;;15.10;;
78430;SDS011;67727;50.236;22.452;2023-11-19T09:54:14;31.40;;;13.70;;
78430;SDS011;67727;50.236;22.452;2023-11-19T09:56:41;28.70;;;12.30;;
78430;SDS011;67727;50.236;22.452;2023-11-19T09:59:09;33.60;;;14.50;;
78430;SDS011;67727;50.236;22.452;2023-11-19T10:01:39;35.50;;;15.60;;
78430;SDS011;67727;50.236;22.452;2023-11-19T10:04:06;29.10;;;14.00;;
78430;SDS011;67727;50.236;22.452;2023-11-19T10:06:33;36.20;;;16.10;;
78430;SDS011;67727;50.236;22.452;2023-11-19T10:09:00;35.50;;;17.90;;
78430;SDS011;67727;50.236;22.452;2023-11-19T10:11:27;30.50;;;16.10;;
78430;SDS011;67727;50.236;22.452;2023-11-19T10:13:54;41.90;;;20.90;;
78430;SDS011;67727;50.236;22.452;2023-11-19T10:16:27;33.70;;;15.80;;
78430;SDS011;67727;50.236;22.452;2023-11-19T10:18:55;20.30;;;10.70;;
78430;SDS011;67727;50.236;22.452;2023-11-19T10:21:22;24.60;;;12.00;;
78430;SDS011;67727;50.236;22.452;2023-11-19T10:23:53;23.00;;;11.20;;
78430;SDS011;67727;50.236;22.452;2023-11-19T10:26:26;30.70;;;15.60;;
78430;SDS011;67727;50.236;22.452;2023-11-19T10:28:53;35.20;;;15.00;;
78430;SDS011;67727;50.236;22.452;2023-11-19T10:31:22;33.30;;;15.80;;
78430;SDS011;67727;50.236;22.452;2023-11-19T10:33:53;30.30;;;14.90;;
78430;SDS011;67727;50.236;22.452;2023-11-19T10:36:20;28.10;;;14.30;;
78430;SDS011;67727;50.236;22.452;2023-11-19T10:38:54;28.80;;;14.10;;
78430;SDS011;67727;50.236;22.452;2023-11-19T10:41:28;23.70;;;12.40;;
78430;SDS011;67727;50.236;22.452;2023-11-19T10:43:57;31.60;;;17.00;;
78430;SDS011;67727;50.236;22.452;2023-11-19T10:46:36;25.40;;;14.40;;
78430;SDS011;67727;50.236;22.452;2023-11-19T10:49:05;39.40;;;18.20;;
78430;SDS011;67727;50.236;22.452;2023-11-19T10:51:33;30.50;;;15.30;;
78430;SDS011;67727;50.236;22.452;2023-11-19T10:54:03;39.20;;;20.20;;
78430;SDS011;67727;50.236;22.452;2023-11-19T10:56:32;41.20;;;18.40;;
78430;SDS011;67727;50.236;22.452;2023-11-19T10:59:00;36.50;;;17.20;;
78430;SDS011;67727;50.236;22.452;2023-11-19T11:01:45;36.20;;;17.30;;
78430;SDS011;67727;50.236;22.452;2023-11-19T11:04:15;39.40;;;17.20;;
78430;SDS011;67727;50.236;22.452;2023-11-19T11:06:48;39.20;;;18.40;;
78430;SDS011;67727;50.236;22.452;2023-11-19T11:09:17;31.80;;;17.30;;
78430;SDS011;67727;50.236;22.452;2023-11-19T11:11:47;33.20;;;18.80;;
78430;SDS011;67727;50.236;22.452;2023-11-19T11:14:15;29.90;;;17.10;;
78430;SDS011;67727;50.236;22.452;2023-11-19T11:16:45;21.90;;;13.00;;
78430;SDS011;67727;50.236;22.452;2023-11-19T11:19:17;26.80;;;15.20;;
78430;SDS011;67727;50.236;22.452;2023-11-19T11:21:47;22.60;;;11.00;;
78430;SDS011;67727;50.236;22.452;2023-11-19T11:25:19;23.60;;;12.10;;
78430;SDS011;67727;50.236;22.452;2023-11-19T11:27:58;33.20;;;13.20;;
78430;SDS011;67727;50.236;22.452;2023-11-19T11:31:03;22.00;;;12.50;;
78430;SDS011;67727;50.236;22.452;2023-11-19T11:33:59;31.60;;;14.30;;
78430;SDS011;67727;50.236;22.452;2023-11-19T11:39:29;22.60;;;12.20;;
78430;SDS011;67727;50.236;22.452;2023-11-19T11:50:25;21.70;;;10.70;;
78430;SDS011;67727;50.236;22.452;2023-11-19T11:55:36;23.10;;;10.60;;
78430;SDS011;67727;50.236;22.452;2023-11-19T11:58:18;22.00;;;11.50;;
78430;SDS011;67727;50.236;22.452;2023-11-19T12:00:47;24.10;;;10.90;;
78430;SDS011;67727;50.236;22.452;2023-11-19T12:03:16;26.20;;;11.90;;
78430;SDS011;67727;50.236;22.452;2023-11-19T12:05:48;21.70;;;11.20;;
78430;SDS011;67727;50.236;22.452;2023-11-19T12:08:18;23.20;;;11.00;;
78430;SDS011;67727;50.236;22.452;2023-11-19T12:10:47;18.30;;;10.30;;
78430;SDS011;67727;50.236;22.452;2023-11-19T12:13:16;20.40;;;11.20;;
78430;SDS011;67727;50.236;22.452;2023-11-19T12:18:27;17.60;;;10.40;;
78430;SDS011;67727;50.236;22.452;2023-11-19T12:20:56;20.40;;;11.80;;
78430;SDS011;67727;50.236;22.452;2023-11-19T12:23:23;28.30;;;14.60;;
78430;SDS011;67727;50.236;22.452;2023-11-19T12:25:50;22.30;;;12.00;;
78430;SDS011;67727;50.236;22.452;2023-11-19T12:28:17;22.30;;;13.40;;
78430;SDS011;67727;50.236;22.452;2023-11-19T12:30:44;23.20;;;10.60;;
78430;SDS011;67727;50.236;22.452;2023-11-19T12:33:11;23.70;;;12.70;;
78430;SDS011;67727;50.236;22.452;2023-11-19T12:35:40;19.40;;;11.20;;
78430;SDS011;67727;50.236;22.452;2023-11-19T12:38:07;23.10;;;11.10;;
78430;SDS011;67727;50.236;22.452;2023-11-19T12:40:34;21.50;;;12.20;;
78430;SDS011;67727;50.236;22.452;2023-11-19T12:43:01;32.70;;;18.50;;
78430;SDS011;67727;50.236;22.452;2023-11-19T12:45:34;14.50;;;8.60;;
78430;SDS011;67727;50.236;22.452;2023-11-19T12:48:06;64.30;;;33.80;;
78430;SDS011;67727;50.236;22.452;2023-11-19T12:53:24;21.50;;;14.40;;
78430;SDS011;67727;50.236;22.452;2023-11-19T12:55:53;14.80;;;9.10;;
78430;SDS011;67727;50.236;22.452;2023-11-19T12:58:31;16.90;;;9.40;;
78430;SDS011;67727;50.236;22.452;2023-11-19T13:00:59;15.50;;;8.00;;
78430;SDS011;67727;50.236;22.452;2023-11-19T13:03:34;17.00;;;10.30;;
78430;SDS011;67727;50.236;22.452;2023-11-19T13:06:03;15.00;;;8.40;;
78430;SDS011;67727;50.236;22.452;2023-11-19T13:08:39;17.10;;;9.50;;
78430;SDS011;67727;50.236;22.452;2023-11-19T13:11:07;15.40;;;8.00;;
78430;SDS011;67727;50.236;22.452;2023-11-19T13:13:53;15.60;;;8.50;;
78430;SDS011;67727;50.236;22.452;2023-11-19T13:16:27;15.90;;;8.10;;
78430;SDS011;67727;50.236;22.452;2023-11-19T13:18:54;17.30;;;8.80;;
78430;SDS011;67727;50.236;22.452;2023-11-19T13:21:21;17.20;;;10.20;;
78430;SDS011;67727;50.236;22.452;2023-11-19T13:23:48;18.60;;;10.10;;
78430;SDS011;67727;50.236;22.452;2023-11-19T13:26:15;16.20;;;9.40;;
78430;SDS011;67727;50.236;22.452;2023-11-19T13:28:42;28.40;;;14.50;;
78430;SDS011;67727;50.236;22.452;2023-11-19T13:31:09;22.40;;;12.20;;
78430;SDS011;67727;50.236;22.452;2023-11-19T13:33:36;15.50;;;9.10;;
78430;SDS011;67727;50.236;22.452;2023-11-19T13:36:04;19.40;;;9.90;;
78430;SDS011;67727;50.236;22.452;2023-11-19T13:38:34;18.90;;;9.90;;
78430;SDS011;67727;50.236;22.452;2023-11-19T13:41:02;22.40;;;11.30;;
78430;SDS011;67727;50.236;22.452;2023-11-19T13:43:31;18.00;;;9.70;;
78430;SDS011;67727;50.236;22.452;2023-11-19T13:45:58;17.20;;;9.10;;
78430;SDS011;67727;50.236;22.452;2023-11-19T13:48:24;34.40;;;16.70;;
78430;SDS011;67727;50.236;22.452;2023-11-19T13:50:53;17.00;;;10.20;;
78430;SDS011;67727;50.236;22.452;2023-11-19T13:53:20;16.00;;;9.90;;
78430;SDS011;67727;50.236;22.452;2023-11-19T13:55:47;16.00;;;8.30;;
78430;SDS011;67727;50.236;22.452;2023-11-19T13:58:14;17.10;;;9.40;;
78430;SDS011;67727;50.236;22.452;2023-11-19T14:00:41;21.60;;;9.10;;
78430;SDS011;67727;50.236;22.452;2023-11-19T14:03:09;16.10;;;9.10;;
78430;SDS011;67727;50.236;22.452;2023-11-19T14:10:38;20.20;;;9.50;;
78430;SDS011;67727;50.236;22.452;2023-11-19T14:13:07;17.60;;;9.60;;
78430;SDS011;67727;50.236;22.452;2023-11-19T14:15:34;20.40;;;9.20;;
78430;SDS011;67727;50.236;22.452;2023-11-19T14:18:02;19.00;;;9.90;;
78430;SDS011;67727;50.236;22.452;2023-11-19T14:20:29;28.30;;;13.80;;
78430;SDS011;67727;50.236;22.452;2023-11-19T14:22:56;33.50;;;16.40;;
78430;SDS011;67727;50.236;22.452;2023-11-19T14:25:23;33.20;;;17.10;;
78430;SDS011;67727;50.236;22.452;2023-11-19T14:27:51;19.50;;;11.60;;
78430;SDS011;67727;50.236;22.452;2023-11-19T14:30:18;19.80;;;11.50;;
78430;SDS011;67727;50.236;22.452;2023-11-19T14:32:44;23.10;;;11.30;;
78430;SDS011;67727;50.236;22.452;2023-11-19T14:35:12;18.20;;;10.80;;
78430;SDS011;67727;50.236;22.452;2023-11-19T14:37:39;25.70;;;12.10;;
78430;SDS011;67727;50.236;22.452;2023-11-19T14:40:06;24.80;;;12.10;;
78430;SDS011;67727;50.236;22.452;2023-11-19T14:42:36;34.20;;;18.70;;
78430;SDS011;67727;50.236;22.452;2023-11-19T14:45:05;47.90;;;23.20;;